MiSS Margy — WCY2616 — position and weather

sailwx.info

Track history (hours):
 
Tides and Currents Weather Stations Pressure Air Temp Water Temp Dewpoint Dewpoint Depression Visibility Wind Speed Wind Dir Waves Ship Positions

MiSS Margy

Owner: SHEPLERS INC, MACKINAW CITY, MI. More information available from US FCC via Universal Licensing System.

Last reported at 2018-Jul-20 02:22 UTC. Time now 2018-Jul-20 02:57 UTC.
Position N 45°47' W 084°43'.

Type: Passenger vessel. MMSI: 367721890.

Date/timePositionNaut miles runAvg speedWind from/ knotsBaromVisibWave heightAir tempDewpointWater temp
2018-Jul-20 02:22N 45°47' W 084°43'616.5
2018-Jul-20 02:00N 45°51' W 084°37'612.0
2018-Jul-20 01:30N 45°47' W 084°43'637.1
2018-Jul-20 01:21N 45°52' W 084°44'514.0
2018-Jul-20 01:00N 45°51' W 084°37'0 1.0
2018-Jul-20 00:59N 45°51' W 084°37'510.1
2018-Jul-20 00:30N 45°52' W 084°44'6642.9
2018-Jul-20 00:30N 45°47' W 084°43'611.8
2018-Jul-20 00:00N 45°51' W 084°37'0 8.0
2018-Jul-19 23:59N 45°51' W 084°37'510.1
2018-Jul-19 23:30N 45°52' W 084°44'6180.1
2018-Jul-19 23:28N 45°47' W 084°43'612.5
2018-Jul-19 23:00N 45°51' W 084°37'0 2.1
2018-Jul-19 22:59N 45°51' W 084°37'612.1
2018-Jul-19 22:30N 45°47' W 084°43'6605.8
2018-Jul-19 22:29N 45°52' W 084°44'510.0
2018-Jul-19 22:00N 45°51' W 084°37'0 9.1
2018-Jul-19 22:00N 45°51' W 084°37'5 9.8
2018-Jul-19 21:30N 45°52' W 084°44'61813.7
2018-Jul-19 21:30N 45°47' W 084°43'0 0.1
2018-Jul-19 21:05N 45°47' W 084°43'0 0.1
2018-Jul-19 21:00N 45°47' W 084°43'61643.3
2018-Jul-19 21:00N 45°51' W 084°37'0 1.6
2018-Jul-19 20:59N 45°51' W 084°37'510.2
2018-Jul-19 20:31N 45°52' W 084°44'47709.2
2018-Jul-19 20:30N 45°49' W 084°39'4751.7
2018-Jul-19 20:30N 45°47' W 084°43'612.0
2018-Jul-19 20:00N 45°51' W 084°37'0 5.1
2018-Jul-19 20:00N 45°51' W 084°37'0 2.6
2018-Jul-19 19:59N 45°51' W 084°37'612.3
2018-Jul-19 19:30N 45°47' W 084°43'6857.6
2018-Jul-19 19:30N 45°51' W 084°37'5727.8
2018-Jul-19 19:29N 45°52' W 084°44'611.5
2018-Jul-19 19:01N 45°47' W 084°43'621470.6
2018-Jul-19 19:01N 45°51' W 084°37'0 0.3
2018-Jul-19 18:57N 45°51' W 084°37'613.5
2018-Jul-19 18:30N 45°47' W 084°43'66664.5
2018-Jul-19 18:30N 45°52' W 084°44'5 9.8
2018-Jul-19 18:00N 45°51' W 084°37'0 0.4
2018-Jul-19 17:58N 45°51' W 084°37'612.8
2018-Jul-19 17:30N 45°47' W 084°43'6350.7
2018-Jul-19 17:29N 45°52' W 084°44'619.9
2018-Jul-19 17:12N 45°47' W 084°43'1 6.7
2018-Jul-19 17:01N 45°48' W 084°42'516713.2
2018-Jul-19 17:01N 45°51' W 084°37'0 1.2
2018-Jul-19 17:00N 45°51' W 084°37'612.3
2018-Jul-19 16:31N 45°47' W 084°43'6767.3
2018-Jul-19 16:30N 45°52' W 084°44'41182.8
2018-Jul-19 16:30N 45°50' W 084°39'3 6.6
2018-Jul-19 16:00N 45°48' W 084°42'5740.9
2018-Jul-19 16:00N 45°51' W 084°37'0 0.6
2018-Jul-19 15:58N 45°51' W 084°37'510.5
2018-Jul-19 15:30N 45°52' W 084°44'52794.2
2018-Jul-19 15:30N 45°50' W 084°38'51389.1
2018-Jul-19 15:30N 45°47' W 084°43'612.1
2018-Jul-19 15:01N 45°51' W 084°37'0436.8
2018-Jul-19 15:00N 45°50' W 084°37'43746.1
2018-Jul-19 15:00N 45°48' W 084°42'5 9.6
2018-Jul-19 14:30N 45°52' W 084°44'66663.7
2018-Jul-19 14:30N 45°47' W 084°43'1 2.6
2018-Jul-19 14:01N 45°48' W 084°42'2 4.7
2018-Jul-19 13:30N 45°50' W 084°40'43244.7
2018-Jul-19 13:30N 45°47' W 084°43'66663.8
2018-Jul-19 13:30N 45°52' W 084°44'5 9.6
2018-Jul-19 13:00N 45°51' W 084°37'0 1.9
2018-Jul-19 12:59N 45°51' W 084°37'510.2
2018-Jul-19 12:30N 45°52' W 084°44'61427.9
2018-Jul-19 12:30N 45°47' W 084°43'611.9
2018-Jul-19 12:00N 45°51' W 084°37'0 8.0
2018-Jul-19 12:00N 45°51' W 084°37'612.2
2018-Jul-19 11:30N 45°47' W 084°43'69974.2
2018-Jul-19 11:30N 45°52' W 084°44'0 0.0
2018-Jul-19 11:00N 45°52' W 084°44'6 0.6
2018-Jul-19 02:28N 45°47' W 084°43'0 0.8
2018-Jul-19 02:25N 45°47' W 084°43'614.4
2018-Jul-19 02:00N 45°51' W 084°37'61779.9
2018-Jul-19 02:00N 45°45' W 084°35'612.3
2018-Jul-19 01:30N 45°47' W 084°43'13389.9
2018-Jul-19 01:28N 45°39' W 084°28'1337.9
2018-Jul-19 01:07N 45°51' W 084°38'14128.7
2018-Jul-19 01:00N 45°42' W 084°22'1449835.6
2018-Jul-19 01:00N 45°51' W 084°37'0 1.1
2018-Jul-19 00:59N 45°51' W 084°37'510.1
2018-Jul-19 00:31N 45°52' W 084°44'62488.4
2018-Jul-19 00:30N 45°47' W 084°43'135844.7
2018-Jul-19 00:30N 45°49' W 084°25'917.5
2018-Jul-19 00:00N 45°50' W 084°37'1515.4
2018-Jul-19 00:00N 45°51' W 084°37'0 1.0
2018-Jul-18 23:59N 45°51' W 084°37'510.1
2018-Jul-18 23:30N 45°52' W 084°44'6556.0
2018-Jul-18 23:30N 45°47' W 084°43'0 1.9
2018-Jul-18 23:29N 45°47' W 084°43'612.7
2018-Jul-18 23:00N 45°51' W 084°37'6629.3
2018-Jul-18 23:00N 45°47' W 084°43'63571.0
2018-Jul-18 23:00N 45°51' W 084°37'611.9
2018-Jul-18 22:30N 45°47' W 084°43'6642.8
2018-Jul-18 22:29N 45°52' W 084°44'6355.9
2018-Jul-18 22:28N 45°47' W 084°43'612.8
2018-Jul-18 22:01N 45°51' W 084°37'54487.1
2018-Jul-18 22:00N 45°48' W 084°43'54496.1
2018-Jul-18 22:00N 45°51' W 084°37'5 9.8
2018-Jul-18 21:30N 45°52' W 084°44'51881.4
2018-Jul-18 21:30N 45°50' W 084°38'5577.0
2018-Jul-18 21:30N 45°47' W 084°43'0 0.6
2018-Jul-18 21:01N 45°47' W 084°43'65098.1
2018-Jul-18 21:00N 45°51' W 084°37'0 0.5
2018-Jul-18 20:58N 45°51' W 084°37'0 0.0
2018-Jul-18 20:30N 45°51' W 084°37'67146.8
2018-Jul-18 20:30N 45°47' W 084°43'6511.5
2018-Jul-18 20:30N 45°52' W 084°44'510.0
2018-Jul-18 20:00N 45°51' W 084°37'65360.1
2018-Jul-18 20:00N 45°47' W 084°43'62385.6
2018-Jul-18 20:00N 45°51' W 084°37'5 9.9
2018-Jul-18 19:30N 45°52' W 084°44'6328.1
2018-Jul-18 19:29N 45°47' W 084°43'612.1
2018-Jul-18 19:00N 45°51' W 084°37'0 1.2
2018-Jul-18 18:59N 45°51' W 084°37'612.5
2018-Jul-18 18:30N 45°47' W 084°43'66663.7
2018-Jul-18 18:30N 45°52' W 084°44'5 9.8
2018-Jul-18 18:00N 45°51' W 084°37'0 2.5
2018-Jul-18 18:00N 45°51' W 084°37'5 9.9
2018-Jul-18 17:31N 45°52' W 084°44'69995.7
2018-Jul-18 17:30N 45°47' W 084°43'2 0.1
2018-Jul-17 19:29N 45°48' W 084°41'4840.2
2018-Jul-17 19:29N 45°52' W 084°44'61052.2
2018-Jul-17 19:28N 45°47' W 084°43'2 4.7
2018-Jul-17 19:00N 45°48' W 084°41'4852.5
2018-Jul-17 19:00N 45°51' W 084°37'0 0.8
2018-Jul-17 18:59N 45°51' W 084°37'612.5
2018-Jul-17 18:30N 45°47' W 084°43'6369.4
2018-Jul-17 18:29N 45°52' W 084°44'510.1
2018-Jul-17 18:00N 45°51' W 084°37'0 1.5
2018-Jul-17 18:00N 45°51' W 084°37'612.0
2018-Jul-17 17:30N 45°47' W 084°43'62855.9
2018-Jul-17 17:30N 45°52' W 084°44'613.5
2018-Jul-17 17:05N 45°47' W 084°43'670.5
2018-Jul-17 17:00N 45°51' W 084°37'54510.1
2018-Jul-17 17:00N 45°48' W 084°42'5268.8
2018-Jul-17 16:59N 45°51' W 084°37'2 4.0
2018-Jul-17 16:30N 45°50' W 084°39'414825.0
2018-Jul-17 16:30N 45°52' W 084°44'646.3
2018-Jul-17 16:23N 45°47' W 084°43'615.7
2018-Jul-17 16:00N 45°51' W 084°37'518226.4
2018-Jul-17 16:00N 45°47' W 084°42'5676.2
2018-Jul-17 16:00N 45°51' W 084°37'0 0.9
2018-Jul-17 15:30N 45°51' W 084°37'6331.7
2018-Jul-17 15:29N 45°47' W 084°43'63998.6
2018-Jul-17 15:29N 45°52' W 084°44'5 9.6
2018-Jul-17 15:01N 45°50' W 084°38'42556.1
2018-Jul-17 15:00N 45°47' W 084°43'51438.1
2018-Jul-17 15:00N 45°51' W 084°37'2 4.4
2018-Jul-17 14:31N 45°50' W 084°40'4467.1
2018-Jul-17 14:30N 45°52' W 084°44'6740.5
2018-Jul-17 14:30N 45°47' W 084°43'3 4.2
2018-Jul-17 13:47N 45°50' W 084°41'218.1
2018-Jul-17 13:40N 45°48' W 084°44'1 4.0
2018-Jul-17 13:23N 45°49' W 084°42'215.9
2018-Jul-17 13:16N 45°47' W 084°43'0 0.4
2018-Jul-17 12:37N 45°47' W 084°43'0 1.9
2018-Jul-17 12:22N 45°47' W 084°43'612.0
2018-Jul-17 11:52N 45°51' W 084°37'0 0.0
2018-Jul-16 21:05N 45°51' W 084°37'0 0.4
2018-Jul-16 20:52N 45°51' W 084°37'613.7
2018-Jul-16 20:26N 45°47' W 084°43'5 4.9
2018-Jul-16 19:18N 45°52' W 084°43'5123.6
2018-Jul-16 19:15N 45°48' W 084°42'511.0
2018-Jul-16 18:48N 45°51' W 084°37'113.2
2018-Jul-16 18:44N 45°51' W 084°38'3 5.8
2018-Jul-16 18:13N 45°48' W 084°41'4 9.4
2018-Jul-16 17:49N 45°51' W 084°37'221.4
2018-Jul-16 17:42N 45°51' W 084°40'513.0
2018-Jul-16 17:19N 45°47' W 084°43'558.4
2018-Jul-16 17:14N 45°52' W 084°42'414.8
2018-Jul-16 16:58N 45°48' W 084°41'438.9
2018-Jul-16 16:51N 45°51' W 084°37'611.6
2018-Jul-16 16:21N 45°47' W 084°43'0 0.3
2018-Jul-16 16:05N 45°47' W 084°43'2 1.7
2018-Jul-16 14:49N 45°49' W 084°44'1 4.1
2018-Jul-16 14:40N 45°48' W 084°44'5316.7
2018-Jul-16 14:39N 45°51' W 084°37'523.7
2018-Jul-16 14:27N 45°49' W 084°43'2 3.8
2018-Jul-16 13:57N 45°49' W 084°41'455.8
2018-Jul-16 13:53N 45°51' W 084°37'579.5
2018-Jul-16 13:50N 45°49' W 084°43'0 1.3
2018-Jul-16 13:28N 45°49' W 084°44'2 6.7
2018-Jul-16 13:14N 45°48' W 084°42'428.6
2018-Jul-16 13:06N 45°51' W 084°38'1 3.2
2018-Jul-16 12:52N 45°51' W 084°37'0 2.7
2018-Jul-16 12:46N 45°51' W 084°37'613.8
2018-Jul-16 12:21N 45°47' W 084°43'523.7
2018-Jul-16 12:07N 45°51' W 084°38'1 3.5
2018-Jul-16 11:51N 45°51' W 084°37'5 0.4
2018-Jul-15 20:37N 45°47' W 084°43'1 2.7
2018-Jul-15 20:16N 45°48' W 084°42'441.9
2018-Jul-15 20:11N 45°51' W 084°40'2 6.2
2018-Jul-15 19:51N 45°51' W 084°37'5 8.7
2018-Jul-15 19:19N 45°48' W 084°42'447.5
2018-Jul-15 19:14N 45°52' W 084°40'2 6.1
2018-Jul-15 18:51N 45°51' W 084°37'223.8
2018-Jul-15 18:45N 45°49' W 084°39'244.7
2018-Jul-15 18:42N 45°51' W 084°40'2 7.6
2018-Jul-15 18:24N 45°51' W 084°37'2 8.3
2018-Jul-15 18:12N 45°51' W 084°39'510.8
2018-Jul-15 17:47N 45°47' W 084°43'450.3
2018-Jul-15 17:41N 45°51' W 084°40'2 5.9
2018-Jul-15 17:20N 45°51' W 084°37'445.9
2018-Jul-15 17:15N 45°52' W 084°42'513.1
2018-Jul-15 16:53N 45°47' W 084°43'542.3
2018-Jul-15 16:47N 45°51' W 084°38'3 6.6
2018-Jul-15 16:22N 45°49' W 084°41'3177.9
2018-Jul-15 16:20N 45°51' W 084°37'216.4
2018-Jul-15 16:13N 45°51' W 084°40'2 9.6
2018-Jul-15 15:59N 45°51' W 084°37'1 4.1
2018-Jul-15 15:47N 45°51' W 084°38'433.9
2018-Jul-15 15:39N 45°48' W 084°42'1 3.5
2018-Jul-15 15:26N 45°47' W 084°43'6979.8
2018-Jul-15 15:26N 45°51' W 084°37'424.6
2018-Jul-15 15:17N 45°52' W 084°42'412.6
2018-Jul-15 14:57N 45°48' W 084°43'419.5
2018-Jul-15 14:44N 45°51' W 084°39'514.4
2018-Jul-15 14:22N 45°47' W 084°43'623.8
2018-Jul-15 14:07N 45°51' W 084°37'0 0.4
2018-Jul-15 13:51N 45°51' W 084°37'4 2.7
2018-Jul-15 12:15N 45°48' W 084°42'42330.9
2018-Jul-15 12:15N 45°52' W 084°42'3 5.8
2018-Jul-15 11:40N 45°49' W 084°42'2 0.2
2018-Jul-15 03:19N 45°47' W 084°43'615.6
2018-Jul-15 02:56N 45°51' W 084°37'5 6.8
2018-Jul-15 02:15N 45°48' W 084°42'447.7
2018-Jul-15 02:10N 45°51' W 084°40'3 0.6
2018-Jul-14 21:32N 45°49' W 084°41'2 7.9
2018-Jul-14 21:21N 45°47' W 084°42'4 6.4
2018-Jul-14 20:40N 45°52' W 084°41'316.8
2018-Jul-14 20:28N 45°51' W 084°37'420.2
2018-Jul-14 20:15N 45°48' W 084°42'0 0.1
2018-Jul-14 19:15N 45°48' W 084°42'4 9.9
2018-Jul-14 18:48N 45°51' W 084°37'614.3
2018-Jul-14 18:23N 45°47' W 084°43'6106.0
2018-Jul-14 18:20N 45°52' W 084°43'4 9.0
2018-Jul-14 17:50N 45°51' W 084°38'075.2
2018-Jul-14 17:50N 45°51' W 084°37'4 6.5
2018-Jul-14 17:17N 45°52' W 084°42'4178.1
2018-Jul-14 17:15N 45°48' W 084°42'0 0.6
2018-Jul-14 16:58N 45°48' W 084°42'444.7
2018-Jul-14 16:52N 45°51' W 084°37'611.1
2018-Jul-14 16:19N 45°47' W 084°43'1 4.1
2018-Jul-14 15:59N 45°48' W 084°42'525.9
2018-Jul-14 15:48N 45°51' W 084°37'5 9.2
2018-Jul-14 15:14N 45°47' W 084°43'2 5.8
2018-Jul-14 14:54N 45°49' W 084°42'457.3
2018-Jul-14 14:50N 45°51' W 084°37'4 6.7
2018-Jul-14 14:13N 45°48' W 084°41'4 6.8
2018-Jul-14 13:36N 45°51' W 084°37'525.2
2018-Jul-14 13:24N 45°49' W 084°44'2 8.4
2018-Jul-14 13:13N 45°48' W 084°41'3 7.7
2018-Jul-14 12:46N 45°51' W 084°38'1 1.9
2018-Jul-14 12:12N 45°51' W 084°40'4 0.4
2018-Jul-14 03:14N 45°48' W 084°42'1 0.7
2018-Jul-14 02:13N 45°48' W 084°41'1 0.3
2018-Jul-14 00:15N 45°48' W 084°42'1 0.6
2018-Jul-13 22:14N 45°49' W 084°41'1 1.0
2018-Jul-13 21:15N 45°48' W 084°41'410.8
2018-Jul-13 20:52N 45°51' W 084°37'5 8.6
2018-Jul-13 20:17N 45°48' W 084°42'5 0.9
2018-Jul-13 14:51N 45°51' W 084°37'5284.0
2018-Jul-13 14:50N 45°49' W 084°43'5 4.0
2018-Jul-13 13:37N 45°51' W 084°37'6 0.5
2018-Jul-13 02:21N 45°47' W 084°43'0 0.3
2018-Jul-13 01:19N 45°47' W 084°43'612.8
2018-Jul-13 00:52N 45°51' W 084°37'5 7.5
2018-Jul-13 00:15N 45°48' W 084°42'0 0.4
2018-Jul-12 23:17N 45°48' W 084°42'1 0.5
2018-Jul-12 21:21N 45°47' W 084°43'2 2.2
2018-Jul-12 20:16N 45°49' W 084°41'4 8.6
2018-Jul-12 19:51N 45°51' W 084°37'4 7.9
2018-Jul-12 19:18N 45°48' W 084°42'4226.2
2018-Jul-12 19:17N 45°52' W 084°41'4 2.2
2018-Jul-12 17:30N 45°48' W 084°42'1 2.3
2018-Jul-12 17:12N 45°48' W 084°41'410.7
2018-Jul-12 16:51N 45°51' W 084°37'624.0
2018-Jul-12 16:36N 45°47' W 084°43'215.8
2018-Jul-12 16:29N 45°48' W 084°41'0 1.0
2018-Jul-12 16:17N 45°48' W 084°41'347.2
2018-Jul-12 16:13N 45°51' W 084°39'2 5.5
2018-Jul-12 15:55N 45°51' W 084°37'1 6.4
2018-Jul-12 15:46N 45°51' W 084°38'526.4
2018-Jul-12 15:35N 45°47' W 084°43'328.0
2018-Jul-12 15:28N 45°49' W 084°40'332.8
2018-Jul-12 15:24N 45°47' W 084°43'5426.5
2018-Jul-12 15:23N 45°52' W 084°43'512.9
2018-Jul-12 15:00N 45°51' W 084°37'012.2
2018-Jul-12 14:59N 45°51' W 084°37'5104.0
2018-Jul-12 14:57N 45°48' W 084°42'4 8.8
2018-Jul-12 14:30N 45°50' W 084°38'5149.7
2018-Jul-12 14:28N 45°47' W 084°43'548.9
2018-Jul-12 14:21N 45°52' W 084°42'3 7.8
2018-Jul-12 13:59N 45°49' W 084°42'4320.3
2018-Jul-12 13:58N 45°51' W 084°37'2151.1
2018-Jul-12 13:58N 45°50' W 084°39'4 7.2
2018-Jul-12 13:21N 45°47' W 084°43'587.2
2018-Jul-12 13:17N 45°52' W 084°43'410.9
2018-Jul-12 12:54N 45°51' W 084°37'0 0.5
2018-Jul-12 12:51N 45°51' W 084°37'615.6
2018-Jul-12 12:28N 45°47' W 084°43'525.5
2018-Jul-12 12:16N 45°52' W 084°42'3 8.1
2018-Jul-12 11:50N 45°51' W 084°37'0 3.3
2018-Jul-12 11:47N 45°51' W 084°37'5 0.5
2018-Jul-12 02:17N 45°48' W 084°42'518.3
2018-Jul-12 02:00N 45°51' W 084°37'623.7
2018-Jul-12 01:45N 45°47' W 084°43'519.6
2018-Jul-12 01:30N 45°46' W 084°37'529.2
2018-Jul-12 01:21N 45°47' W 084°43'6552.4
2018-Jul-12 01:20N 45°52' W 084°44'513.9
2018-Jul-12 00:59N 45°51' W 084°37'0 0.3
2018-Jul-12 00:52N 45°51' W 084°37'12116.1
2018-Jul-12 00:45N 45°41' W 084°26'1354.0
2018-Jul-12 00:30N 45°47' W 084°43'524.9
2018-Jul-12 00:17N 45°52' W 084°43'410.3
2018-Jul-11 23:52N 45°51' W 084°37'0 0.5
2018-Jul-11 23:51N 45°51' W 084°37'1 6.1
2018-Jul-11 23:44N 45°51' W 084°36'3 8.8
2018-Jul-11 23:25N 45°50' W 084°40'424.6
2018-Jul-11 23:15N 45°52' W 084°44'5143.5
2018-Jul-11 23:13N 45°48' W 084°42'411.4
2018-Jul-11 22:50N 45°51' W 084°37'0 3.3
2018-Jul-11 22:46N 45°51' W 084°37'511.8
2018-Jul-11 22:19N 45°47' W 084°43'612.5
2018-Jul-11 21:52N 45°51' W 084°37'5 8.5
2018-Jul-11 21:17N 45°48' W 084°42'1 0.2
2018-Jul-11 18:14N 45°48' W 084°42'4 4.6
2018-Jul-11 17:18N 45°51' W 084°37'5612.7
2018-Jul-11 17:18N 45°47' W 084°43'537.4
2018-Jul-11 17:10N 45°51' W 084°39'421.9
2018-Jul-11 17:00N 45°52' W 084°44'5 8.4
2018-Jul-11 16:24N 45°51' W 084°37'534.8
2018-Jul-11 16:16N 45°48' W 084°42'489.3
2018-Jul-11 16:13N 45°52' W 084°41'2 9.8
2018-Jul-11 16:00N 45°52' W 084°44'538.3
2018-Jul-11 15:52N 45°51' W 084°37'010.9
2018-Jul-11 15:51N 45°51' W 084°37'2 3.7
2018-Jul-11 15:19N 45°51' W 084°40'483.7
2018-Jul-11 15:17N 45°48' W 084°42'0 0.9
2018-Jul-11 15:01N 45°48' W 084°42'127.0
2018-Jul-11 14:59N 45°48' W 084°41'110.5
2018-Jul-11 14:51N 45°49' W 084°43'1 5.5
2018-Jul-11 14:40N 45°49' W 084°44'2 7.8
2018-Jul-11 14:27N 45°47' W 084°43'2342.4
2018-Jul-11 14:26N 45°49' W 084°43'422.0
2018-Jul-11 14:16N 45°51' W 084°39'413.7
2018-Jul-11 14:00N 45°48' W 084°42'440.7
2018-Jul-11 13:53N 45°51' W 084°37'4143.1
2018-Jul-11 13:52N 45°49' W 084°42'1 2.0
2018-Jul-11 13:25N 45°49' W 084°44'2 8.6
2018-Jul-11 13:13N 45°48' W 084°41'348.6
2018-Jul-11 13:09N 45°51' W 084°40'2 9.4
2018-Jul-11 12:55N 45°51' W 084°37'0 0.6
2018-Jul-11 12:50N 45°51' W 084°37'612.0
2018-Jul-11 12:20N 45°47' W 084°43'563.0
2018-Jul-11 12:15N 45°52' W 084°42'4 8.7
2018-Jul-11 11:50N 45°51' W 084°37'1 6.3
2018-Jul-11 11:44N 45°51' W 084°38'5 0.6
2018-Jul-11 02:19N 45°47' W 084°43'614.7
2018-Jul-11 01:54N 45°51' W 084°37'4 7.1
2018-Jul-11 01:16N 45°52' W 084°43'511.2
2018-Jul-11 00:51N 45°51' W 084°37'611.5
2018-Jul-11 00:20N 45°47' W 084°43'613.6
2018-Jul-10 23:54N 45°51' W 084°37'458.5
2018-Jul-10 23:49N 45°48' W 084°42'410.4
2018-Jul-10 23:24N 45°51' W 084°37'682.4
2018-Jul-10 23:20N 45°47' W 084°43'611.3
2018-Jul-10 22:48N 45°51' W 084°37'5 9.9
2018-Jul-10 22:17N 45°47' W 084°42'224.5
2018-Jul-10 22:13N 45°49' W 084°41'3 8.9
2018-Jul-10 21:51N 45°51' W 084°37'415.5
2018-Jul-10 21:34N 45°48' W 084°42'0 1.3
2018-Jul-10 21:15N 45°48' W 084°41'4 9.3
2018-Jul-10 20:50N 45°51' W 084°37'2 4.1
2018-Jul-10 20:16N 45°49' W 084°39'328.8
2018-Jul-10 20:09N 45°47' W 084°43'537.6
2018-Jul-10 20:00N 45°51' W 084°37'65376.0
2018-Jul-10 20:00N 45°47' W 084°43'611.9
2018-Jul-10 19:30N 45°51' W 084°37'64294.1
2018-Jul-10 19:30N 45°47' W 084°43'611.9
2018-Jul-10 19:00N 45°51' W 084°37'64294.1
2018-Jul-10 19:00N 45°47' W 084°43'612.1
2018-Jul-10 18:31N 45°51' W 084°37'6741.5
2018-Jul-10 18:30N 45°47' W 084°43'0 0.5
2018-Jul-10 18:25N 45°47' W 084°43'0 0.0
2018-Jul-10 18:00N 45°47' W 084°43'017.6
2018-Jul-10 18:00N 45°47' W 084°43'610752.1
2018-Jul-10 18:00N 45°51' W 084°37'612.1
2018-Jul-10 17:30N 45°47' W 084°43'1374.2
2018-Jul-10 17:30N 45°47' W 084°43'52101.4
2018-Jul-10 17:30N 45°51' W 084°37'1 2.1
2018-Jul-10 17:01N 45°50' W 084°38'55939.0
2018-Jul-10 17:00N 45°47' W 084°43'610729.7
2018-Jul-10 17:00N 45°51' W 084°37'611.1
2018-Jul-10 16:31N 45°47' W 084°43'66631.6
2018-Jul-10 16:30N 45°51' W 084°37'6397.6
2018-Jul-10 16:30N 45°47' W 084°43'5 9.6
2018-Jul-10 16:01N 45°50' W 084°38'1784.7
2018-Jul-10 16:00N 45°51' W 084°37'62147.1
2018-Jul-10 16:00N 45°47' W 084°43'1 2.1
2018-Jul-10 15:31N 45°48' W 084°42'55924.5
2018-Jul-10 15:30N 45°51' W 084°37'67184.1
2018-Jul-10 15:30N 45°47' W 084°43'611.9
2018-Jul-10 15:00N 45°51' W 084°37'065.6
2018-Jul-10 15:00N 45°51' W 084°37'61042.4
2018-Jul-10 15:00N 45°47' W 084°43'0 0.0
2018-Jul-10 14:31N 45°47' W 084°43'32267.1
2018-Jul-10 14:30N 45°49' W 084°42'4220.2
2018-Jul-10 14:29N 45°51' W 084°37'4 7.4
2018-Jul-10 14:00N 45°49' W 084°41'2786.3
2018-Jul-10 14:00N 45°47' W 084°43'621470.6
2018-Jul-10 14:00N 45°51' W 084°37'612.1
2018-Jul-10 13:31N 45°47' W 084°43'610752.1
2018-Jul-10 13:31N 45°51' W 084°37'34033.2
2018-Jul-10 13:30N 45°49' W 084°41'3 5.6
2018-Jul-10 13:00N 45°47' W 084°43'61536.8
2018-Jul-10 13:00N 45°51' W 084°37'611.8
2018-Jul-10 12:30N 45°47' W 084°43'612.1
2018-Jul-10 12:00N 45°51' W 084°37'612.1
2018-Jul-10 11:30N 45°47' W 084°43'0 0.0
2018-Jul-10 02:27N 45°47' W 084°43'  
Track history (hours):
 
Tides and Currents Weather Stations Pressure Air Temp Water Temp Dewpoint Dewpoint Depression Visibility Wind Speed Wind Dir Waves Ship Positions

MiSS Margy

Owner: SHEPLERS INC, MACKINAW CITY, MI. More information available from US FCC via Universal Licensing System.

Last reported at 2018-Jul-20 02:22 UTC. Time now 2018-Jul-20 02:57 UTC.
Position N 45°47' W 084°43'.

Type: Passenger vessel. MMSI: 367721890.

Date/timePositionNaut miles runAvg speedWind from/ knotsBaromVisibWave heightAir tempDewpointWater temp
2018-Jul-20 02:22N 45°47' W 084°43'616.5
2018-Jul-20 02:00N 45°51' W 084°37'612.0
2018-Jul-20 01:30N 45°47' W 084°43'637.1
2018-Jul-20 01:21N 45°52' W 084°44'514.0
2018-Jul-20 01:00N 45°51' W 084°37'0 1.0
2018-Jul-20 00:59N 45°51' W 084°37'510.1
2018-Jul-20 00:30N 45°52' W 084°44'6642.9
2018-Jul-20 00:30N 45°47' W 084°43'611.8
2018-Jul-20 00:00N 45°51' W 084°37'0 8.0
2018-Jul-19 23:59N 45°51' W 084°37'510.1
2018-Jul-19 23:30N 45°52' W 084°44'6180.1
2018-Jul-19 23:28N 45°47' W 084°43'612.5
2018-Jul-19 23:00N 45°51' W 084°37'0 2.1
2018-Jul-19 22:59N 45°51' W 084°37'612.1
2018-Jul-19 22:30N 45°47' W 084°43'6605.8
2018-Jul-19 22:29N 45°52' W 084°44'510.0
2018-Jul-19 22:00N 45°51' W 084°37'0 9.1
2018-Jul-19 22:00N 45°51' W 084°37'5 9.8
2018-Jul-19 21:30N 45°52' W 084°44'61813.7
2018-Jul-19 21:30N 45°47' W 084°43'0 0.1
2018-Jul-19 21:05N 45°47' W 084°43'0 0.1
2018-Jul-19 21:00N 45°47' W 084°43'61643.3
2018-Jul-19 21:00N 45°51' W 084°37'0 1.6
2018-Jul-19 20:59N 45°51' W 084°37'510.2
2018-Jul-19 20:31N 45°52' W 084°44'47709.2
2018-Jul-19 20:30N 45°49' W 084°39'4751.7
2018-Jul-19 20:30N 45°47' W 084°43'612.0
2018-Jul-19 20:00N 45°51' W 084°37'0 5.1
2018-Jul-19 20:00N 45°51' W 084°37'0 2.6
2018-Jul-19 19:59N 45°51' W 084°37'612.3
2018-Jul-19 19:30N 45°47' W 084°43'6857.6
2018-Jul-19 19:30N 45°51' W 084°37'5727.8
2018-Jul-19 19:29N 45°52' W 084°44'611.5
2018-Jul-19 19:01N 45°47' W 084°43'621470.6
2018-Jul-19 19:01N 45°51' W 084°37'0 0.3
2018-Jul-19 18:57N 45°51' W 084°37'613.5
2018-Jul-19 18:30N 45°47' W 084°43'66664.5
2018-Jul-19 18:30N 45°52' W 084°44'5 9.8
2018-Jul-19 18:00N 45°51' W 084°37'0 0.4
2018-Jul-19 17:58N 45°51' W 084°37'612.8
2018-Jul-19 17:30N 45°47' W 084°43'6350.7
2018-Jul-19 17:29N 45°52' W 084°44'619.9
2018-Jul-19 17:12N 45°47' W 084°43'1 6.7
2018-Jul-19 17:01N 45°48' W 084°42'516713.2
2018-Jul-19 17:01N 45°51' W 084°37'0 1.2
2018-Jul-19 17:00N 45°51' W 084°37'612.3
2018-Jul-19 16:31N 45°47' W 084°43'6767.3
2018-Jul-19 16:30N 45°52' W 084°44'41182.8
2018-Jul-19 16:30N 45°50' W 084°39'3 6.6
2018-Jul-19 16:00N 45°48' W 084°42'5740.9
2018-Jul-19 16:00N 45°51' W 084°37'0 0.6
2018-Jul-19 15:58N 45°51' W 084°37'510.5
2018-Jul-19 15:30N 45°52' W 084°44'52794.2
2018-Jul-19 15:30N 45°50' W 084°38'51389.1
2018-Jul-19 15:30N 45°47' W 084°43'612.1
2018-Jul-19 15:01N 45°51' W 084°37'0436.8
2018-Jul-19 15:00N 45°50' W 084°37'43746.1
2018-Jul-19 15:00N 45°48' W 084°42'5 9.6
2018-Jul-19 14:30N 45°52' W 084°44'66663.7
2018-Jul-19 14:30N 45°47' W 084°43'1 2.6
2018-Jul-19 14:01N 45°48' W 084°42'2 4.7
2018-Jul-19 13:30N 45°50' W 084°40'43244.7
2018-Jul-19 13:30N 45°47' W 084°43'66663.8
2018-Jul-19 13:30N 45°52' W 084°44'5 9.6
2018-Jul-19 13:00N 45°51' W 084°37'0 1.9
2018-Jul-19 12:59N 45°51' W 084°37'510.2
2018-Jul-19 12:30N 45°52' W 084°44'61427.9
2018-Jul-19 12:30N 45°47' W 084°43'611.9
2018-Jul-19 12:00N 45°51' W 084°37'0 8.0
2018-Jul-19 12:00N 45°51' W 084°37'612.2
2018-Jul-19 11:30N 45°47' W 084°43'69974.2
2018-Jul-19 11:30N 45°52' W 084°44'0 0.0
2018-Jul-19 11:00N 45°52' W 084°44'6 0.6
2018-Jul-19 02:28N 45°47' W 084°43'0 0.8
2018-Jul-19 02:25N 45°47' W 084°43'614.4
2018-Jul-19 02:00N 45°51' W 084°37'61779.9
2018-Jul-19 02:00N 45°45' W 084°35'612.3
2018-Jul-19 01:30N 45°47' W 084°43'13389.9
2018-Jul-19 01:28N 45°39' W 084°28'1337.9
2018-Jul-19 01:07N 45°51' W 084°38'14128.7
2018-Jul-19 01:00N 45°42' W 084°22'1449835.6
2018-Jul-19 01:00N 45°51' W 084°37'0 1.1
2018-Jul-19 00:59N 45°51' W 084°37'510.1
2018-Jul-19 00:31N 45°52' W 084°44'62488.4
2018-Jul-19 00:30N 45°47' W 084°43'135844.7
2018-Jul-19 00:30N 45°49' W 084°25'917.5
2018-Jul-19 00:00N 45°50' W 084°37'1515.4
2018-Jul-19 00:00N 45°51' W 084°37'0 1.0
2018-Jul-18 23:59N 45°51' W 084°37'510.1
2018-Jul-18 23:30N 45°52' W 084°44'6556.0
2018-Jul-18 23:30N 45°47' W 084°43'0 1.9
2018-Jul-18 23:29N 45°47' W 084°43'612.7
2018-Jul-18 23:00N 45°51' W 084°37'6629.3
2018-Jul-18 23:00N 45°47' W 084°43'63571.0
2018-Jul-18 23:00N 45°51' W 084°37'611.9
2018-Jul-18 22:30N 45°47' W 084°43'6642.8
2018-Jul-18 22:29N 45°52' W 084°44'6355.9
2018-Jul-18 22:28N 45°47' W 084°43'612.8
2018-Jul-18 22:01N 45°51' W 084°37'54487.1
2018-Jul-18 22:00N 45°48' W 084°43'54496.1
2018-Jul-18 22:00N 45°51' W 084°37'5 9.8
2018-Jul-18 21:30N 45°52' W 084°44'51881.4
2018-Jul-18 21:30N 45°50' W 084°38'5577.0
2018-Jul-18 21:30N 45°47' W 084°43'0 0.6
2018-Jul-18 21:01N 45°47' W 084°43'65098.1
2018-Jul-18 21:00N 45°51' W 084°37'0 0.5
2018-Jul-18 20:58N 45°51' W 084°37'0 0.0
2018-Jul-18 20:30N 45°51' W 084°37'67146.8
2018-Jul-18 20:30N 45°47' W 084°43'6511.5
2018-Jul-18 20:30N 45°52' W 084°44'510.0
2018-Jul-18 20:00N 45°51' W 084°37'65360.1
2018-Jul-18 20:00N 45°47' W 084°43'62385.6
2018-Jul-18 20:00N 45°51' W 084°37'5 9.9
2018-Jul-18 19:30N 45°52' W 084°44'6328.1
2018-Jul-18 19:29N 45°47' W 084°43'612.1
2018-Jul-18 19:00N 45°51' W 084°37'0 1.2
2018-Jul-18 18:59N 45°51' W 084°37'612.5
2018-Jul-18 18:30N 45°47' W 084°43'66663.7
2018-Jul-18 18:30N 45°52' W 084°44'5 9.8
2018-Jul-18 18:00N 45°51' W 084°37'0 2.5
2018-Jul-18 18:00N 45°51' W 084°37'5 9.9
2018-Jul-18 17:31N 45°52' W 084°44'69995.7
2018-Jul-18 17:30N 45°47' W 084°43'2 0.1
2018-Jul-17 19:29N 45°48' W 084°41'4840.2
2018-Jul-17 19:29N 45°52' W 084°44'61052.2
2018-Jul-17 19:28N 45°47' W 084°43'2 4.7
2018-Jul-17 19:00N 45°48' W 084°41'4852.5
2018-Jul-17 19:00N 45°51' W 084°37'0 0.8
2018-Jul-17 18:59N 45°51' W 084°37'612.5
2018-Jul-17 18:30N 45°47' W 084°43'6369.4
2018-Jul-17 18:29N 45°52' W 084°44'510.1
2018-Jul-17 18:00N 45°51' W 084°37'0 1.5
2018-Jul-17 18:00N 45°51' W 084°37'612.0
2018-Jul-17 17:30N 45°47' W 084°43'62855.9
2018-Jul-17 17:30N 45°52' W 084°44'613.5
2018-Jul-17 17:05N 45°47' W 084°43'670.5
2018-Jul-17 17:00N 45°51' W 084°37'54510.1
2018-Jul-17 17:00N 45°48' W 084°42'5268.8
2018-Jul-17 16:59N 45°51' W 084°37'2 4.0
2018-Jul-17 16:30N 45°50' W 084°39'414825.0
2018-Jul-17 16:30N 45°52' W 084°44'646.3
2018-Jul-17 16:23N 45°47' W 084°43'615.7
2018-Jul-17 16:00N 45°51' W 084°37'518226.4
2018-Jul-17 16:00N 45°47' W 084°42'5676.2
2018-Jul-17 16:00N 45°51' W 084°37'0 0.9
2018-Jul-17 15:30N 45°51' W 084°37'6331.7
2018-Jul-17 15:29N 45°47' W 084°43'63998.6
2018-Jul-17 15:29N 45°52' W 084°44'5 9.6
2018-Jul-17 15:01N 45°50' W 084°38'42556.1
2018-Jul-17 15:00N 45°47' W 084°43'51438.1
2018-Jul-17 15:00N 45°51' W 084°37'2 4.4
2018-Jul-17 14:31N 45°50' W 084°40'4467.1
2018-Jul-17 14:30N 45°52' W 084°44'6740.5
2018-Jul-17 14:30N 45°47' W 084°43'3 4.2
2018-Jul-17 13:47N 45°50' W 084°41'218.1
2018-Jul-17 13:40N 45°48' W 084°44'1 4.0
2018-Jul-17 13:23N 45°49' W 084°42'215.9
2018-Jul-17 13:16N 45°47' W 084°43'0 0.4
2018-Jul-17 12:37N 45°47' W 084°43'0 1.9
2018-Jul-17 12:22N 45°47' W 084°43'612.0
2018-Jul-17 11:52N 45°51' W 084°37'0 0.0
2018-Jul-16 21:05N 45°51' W 084°37'0 0.4
2018-Jul-16 20:52N 45°51' W 084°37'613.7
2018-Jul-16 20:26N 45°47' W 084°43'5 4.9
2018-Jul-16 19:18N 45°52' W 084°43'5123.6
2018-Jul-16 19:15N 45°48' W 084°42'511.0
2018-Jul-16 18:48N 45°51' W 084°37'113.2
2018-Jul-16 18:44N 45°51' W 084°38'3 5.8
2018-Jul-16 18:13N 45°48' W 084°41'4 9.4
2018-Jul-16 17:49N 45°51' W 084°37'221.4
2018-Jul-16 17:42N 45°51' W 084°40'513.0
2018-Jul-16 17:19N 45°47' W 084°43'558.4
2018-Jul-16 17:14N 45°52' W 084°42'414.8
2018-Jul-16 16:58N 45°48' W 084°41'438.9
2018-Jul-16 16:51N 45°51' W 084°37'611.6
2018-Jul-16 16:21N 45°47' W 084°43'0 0.3
2018-Jul-16 16:05N 45°47' W 084°43'2 1.7
2018-Jul-16 14:49N 45°49' W 084°44'1 4.1
2018-Jul-16 14:40N 45°48' W 084°44'5316.7
2018-Jul-16 14:39N 45°51' W 084°37'523.7
2018-Jul-16 14:27N 45°49' W 084°43'2 3.8
2018-Jul-16 13:57N 45°49' W 084°41'455.8
2018-Jul-16 13:53N 45°51' W 084°37'579.5
2018-Jul-16 13:50N 45°49' W 084°43'0 1.3
2018-Jul-16 13:28N 45°49' W 084°44'2 6.7
2018-Jul-16 13:14N 45°48' W 084°42'428.6
2018-Jul-16 13:06N 45°51' W 084°38'1 3.2
2018-Jul-16 12:52N 45°51' W 084°37'0 2.7
2018-Jul-16 12:46N 45°51' W 084°37'613.8
2018-Jul-16 12:21N 45°47' W 084°43'523.7
2018-Jul-16 12:07N 45°51' W 084°38'1 3.5
2018-Jul-16 11:51N 45°51' W 084°37'5 0.4
2018-Jul-15 20:37N 45°47' W 084°43'1 2.7
2018-Jul-15 20:16N 45°48' W 084°42'441.9
2018-Jul-15 20:11N 45°51' W 084°40'2 6.2
2018-Jul-15 19:51N 45°51' W 084°37'5 8.7
2018-Jul-15 19:19N 45°48' W 084°42'447.5
2018-Jul-15 19:14N 45°52' W 084°40'2 6.1
2018-Jul-15 18:51N 45°51' W 084°37'223.8
2018-Jul-15 18:45N 45°49' W 084°39'244.7
2018-Jul-15 18:42N 45°51' W 084°40'2 7.6
2018-Jul-15 18:24N 45°51' W 084°37'2 8.3
2018-Jul-15 18:12N 45°51' W 084°39'510.8
2018-Jul-15 17:47N 45°47' W 084°43'450.3
2018-Jul-15 17:41N 45°51' W 084°40'2 5.9
2018-Jul-15 17:20N 45°51' W 084°37'445.9
2018-Jul-15 17:15N 45°52' W 084°42'513.1
2018-Jul-15 16:53N 45°47' W 084°43'542.3
2018-Jul-15 16:47N 45°51' W 084°38'3 6.6
2018-Jul-15 16:22N 45°49' W 084°41'3177.9
2018-Jul-15 16:20N 45°51' W 084°37'216.4
2018-Jul-15 16:13N 45°51' W 084°40'2 9.6
2018-Jul-15 15:59N 45°51' W 084°37'1 4.1
2018-Jul-15 15:47N 45°51' W 084°38'433.9
2018-Jul-15 15:39N 45°48' W 084°42'1 3.5
2018-Jul-15 15:26N 45°47' W 084°43'6979.8
2018-Jul-15 15:26N 45°51' W 084°37'424.6
2018-Jul-15 15:17N 45°52' W 084°42'412.6
2018-Jul-15 14:57N 45°48' W 084°43'419.5
2018-Jul-15 14:44N 45°51' W 084°39'514.4
2018-Jul-15 14:22N 45°47' W 084°43'623.8
2018-Jul-15 14:07N 45°51' W 084°37'0 0.4
2018-Jul-15 13:51N 45°51' W 084°37'4 2.7
2018-Jul-15 12:15N 45°48' W 084°42'42330.9
2018-Jul-15 12:15N 45°52' W 084°42'3 5.8
2018-Jul-15 11:40N 45°49' W 084°42'2 0.2
2018-Jul-15 03:19N 45°47' W 084°43'615.6
2018-Jul-15 02:56N 45°51' W 084°37'5 6.8
2018-Jul-15 02:15N 45°48' W 084°42'447.7
2018-Jul-15 02:10N 45°51' W 084°40'3 0.6
2018-Jul-14 21:32N 45°49' W 084°41'2 7.9
2018-Jul-14 21:21N 45°47' W 084°42'4 6.4
2018-Jul-14 20:40N 45°52' W 084°41'316.8
2018-Jul-14 20:28N 45°51' W 084°37'420.2
2018-Jul-14 20:15N 45°48' W 084°42'0 0.1
2018-Jul-14 19:15N 45°48' W 084°42'4 9.9
2018-Jul-14 18:48N 45°51' W 084°37'614.3
2018-Jul-14 18:23N 45°47' W 084°43'6106.0
2018-Jul-14 18:20N 45°52' W 084°43'4 9.0
2018-Jul-14 17:50N 45°51' W 084°38'075.2
2018-Jul-14 17:50N 45°51' W 084°37'4 6.5
2018-Jul-14 17:17N 45°52' W 084°42'4178.1
2018-Jul-14 17:15N 45°48' W 084°42'0 0.6
2018-Jul-14 16:58N 45°48' W 084°42'444.7
2018-Jul-14 16:52N 45°51' W 084°37'611.1
2018-Jul-14 16:19N 45°47' W 084°43'1 4.1
2018-Jul-14 15:59N 45°48' W 084°42'525.9
2018-Jul-14 15:48N 45°51' W 084°37'5 9.2
2018-Jul-14 15:14N 45°47' W 084°43'2 5.8
2018-Jul-14 14:54N 45°49' W 084°42'457.3
2018-Jul-14 14:50N 45°51' W 084°37'4 6.7
2018-Jul-14 14:13N 45°48' W 084°41'4 6.8
2018-Jul-14 13:36N 45°51' W 084°37'525.2
2018-Jul-14 13:24N 45°49' W 084°44'2 8.4
2018-Jul-14 13:13N 45°48' W 084°41'3 7.7
2018-Jul-14 12:46N 45°51' W 084°38'1 1.9
2018-Jul-14 12:12N 45°51' W 084°40'4 0.4
2018-Jul-14 03:14N 45°48' W 084°42'1 0.7
2018-Jul-14 02:13N 45°48' W 084°41'1 0.3
2018-Jul-14 00:15N 45°48' W 084°42'1 0.6
2018-Jul-13 22:14N 45°49' W 084°41'1 1.0
2018-Jul-13 21:15N 45°48' W 084°41'410.8
2018-Jul-13 20:52N 45°51' W 084°37'5 8.6
2018-Jul-13 20:17N 45°48' W 084°42'5 0.9
2018-Jul-13 14:51N 45°51' W 084°37'5284.0
2018-Jul-13 14:50N 45°49' W 084°43'5 4.0
2018-Jul-13 13:37N 45°51' W 084°37'6 0.5
2018-Jul-13 02:21N 45°47' W 084°43'0 0.3
2018-Jul-13 01:19N 45°47' W 084°43'612.8
2018-Jul-13 00:52N 45°51' W 084°37'5 7.5
2018-Jul-13 00:15N 45°48' W 084°42'0 0.4
2018-Jul-12 23:17N 45°48' W 084°42'1 0.5
2018-Jul-12 21:21N 45°47' W 084°43'2 2.2
2018-Jul-12 20:16N 45°49' W 084°41'4 8.6
2018-Jul-12 19:51N 45°51' W 084°37'4 7.9
2018-Jul-12 19:18N 45°48' W 084°42'4226.2
2018-Jul-12 19:17N 45°52' W 084°41'4 2.2
2018-Jul-12 17:30N 45°48' W 084°42'1 2.3
2018-Jul-12 17:12N 45°48' W 084°41'410.7
2018-Jul-12 16:51N 45°51' W 084°37'624.0
2018-Jul-12 16:36N 45°47' W 084°43'215.8
2018-Jul-12 16:29N 45°48' W 084°41'0 1.0
2018-Jul-12 16:17N 45°48' W 084°41'347.2
2018-Jul-12 16:13N 45°51' W 084°39'2 5.5
2018-Jul-12 15:55N 45°51' W 084°37'1 6.4
2018-Jul-12 15:46N 45°51' W 084°38'526.4
2018-Jul-12 15:35N 45°47' W 084°43'328.0
2018-Jul-12 15:28N 45°49' W 084°40'332.8
2018-Jul-12 15:24N 45°47' W 084°43'5426.5
2018-Jul-12 15:23N 45°52' W 084°43'512.9
2018-Jul-12 15:00N 45°51' W 084°37'012.2
2018-Jul-12 14:59N 45°51' W 084°37'5104.0
2018-Jul-12 14:57N 45°48' W 084°42'4 8.8
2018-Jul-12 14:30N 45°50' W 084°38'5149.7
2018-Jul-12 14:28N 45°47' W 084°43'548.9
2018-Jul-12 14:21N 45°52' W 084°42'3 7.8
2018-Jul-12 13:59N 45°49' W 084°42'4320.3
2018-Jul-12 13:58N 45°51' W 084°37'2151.1
2018-Jul-12 13:58N 45°50' W 084°39'4 7.2
2018-Jul-12 13:21N 45°47' W 084°43'587.2
2018-Jul-12 13:17N 45°52' W 084°43'410.9
2018-Jul-12 12:54N 45°51' W 084°37'0 0.5
2018-Jul-12 12:51N 45°51' W 084°37'615.6
2018-Jul-12 12:28N 45°47' W 084°43'525.5
2018-Jul-12 12:16N 45°52' W 084°42'3 8.1
2018-Jul-12 11:50N 45°51' W 084°37'0 3.3
2018-Jul-12 11:47N 45°51' W 084°37'5 0.5
2018-Jul-12 02:17N 45°48' W 084°42'518.3
2018-Jul-12 02:00N 45°51' W 084°37'623.7
2018-Jul-12 01:45N 45°47' W 084°43'519.6
2018-Jul-12 01:30N 45°46' W 084°37'529.2
2018-Jul-12 01:21N 45°47' W 084°43'6552.4
2018-Jul-12 01:20N 45°52' W 084°44'513.9
2018-Jul-12 00:59N 45°51' W 084°37'0 0.3
2018-Jul-12 00:52N 45°51' W 084°37'12116.1
2018-Jul-12 00:45N 45°41' W 084°26'1354.0
2018-Jul-12 00:30N 45°47' W 084°43'524.9
2018-Jul-12 00:17N 45°52' W 084°43'410.3
2018-Jul-11 23:52N 45°51' W 084°37'0 0.5
2018-Jul-11 23:51N 45°51' W 084°37'1 6.1
2018-Jul-11 23:44N 45°51' W 084°36'3 8.8
2018-Jul-11 23:25N 45°50' W 084°40'424.6
2018-Jul-11 23:15N 45°52' W 084°44'5143.5
2018-Jul-11 23:13N 45°48' W 084°42'411.4
2018-Jul-11 22:50N 45°51' W 084°37'0 3.3
2018-Jul-11 22:46N 45°51' W 084°37'511.8
2018-Jul-11 22:19N 45°47' W 084°43'612.5
2018-Jul-11 21:52N 45°51' W 084°37'5 8.5
2018-Jul-11 21:17N 45°48' W 084°42'1 0.2
2018-Jul-11 18:14N 45°48' W 084°42'4 4.6
2018-Jul-11 17:18N 45°51' W 084°37'5612.7
2018-Jul-11 17:18N 45°47' W 084°43'537.4
2018-Jul-11 17:10N 45°51' W 084°39'421.9
2018-Jul-11 17:00N 45°52' W 084°44'5 8.4
2018-Jul-11 16:24N 45°51' W 084°37'534.8
2018-Jul-11 16:16N 45°48' W 084°42'489.3
2018-Jul-11 16:13N 45°52' W 084°41'2 9.8
2018-Jul-11 16:00N 45°52' W 084°44'538.3
2018-Jul-11 15:52N 45°51' W 084°37'010.9
2018-Jul-11 15:51N 45°51' W 084°37'2 3.7
2018-Jul-11 15:19N 45°51' W 084°40'483.7
2018-Jul-11 15:17N 45°48' W 084°42'0 0.9
2018-Jul-11 15:01N 45°48' W 084°42'127.0
2018-Jul-11 14:59N 45°48' W 084°41'110.5
2018-Jul-11 14:51N 45°49' W 084°43'1 5.5
2018-Jul-11 14:40N 45°49' W 084°44'2 7.8
2018-Jul-11 14:27N 45°47' W 084°43'2342.4
2018-Jul-11 14:26N 45°49' W 084°43'422.0
2018-Jul-11 14:16N 45°51' W 084°39'413.7
2018-Jul-11 14:00N 45°48' W 084°42'440.7
2018-Jul-11 13:53N 45°51' W 084°37'4143.1
2018-Jul-11 13:52N 45°49' W 084°42'1 2.0
2018-Jul-11 13:25N 45°49' W 084°44'2 8.6
2018-Jul-11 13:13N 45°48' W 084°41'348.6
2018-Jul-11 13:09N 45°51' W 084°40'2 9.4
2018-Jul-11 12:55N 45°51' W 084°37'0 0.6
2018-Jul-11 12:50N 45°51' W 084°37'612.0
2018-Jul-11 12:20N 45°47' W 084°43'563.0
2018-Jul-11 12:15N 45°52' W 084°42'4 8.7
2018-Jul-11 11:50N 45°51' W 084°37'1 6.3
2018-Jul-11 11:44N 45°51' W 084°38'5 0.6
2018-Jul-11 02:19N 45°47' W 084°43'614.7
2018-Jul-11 01:54N 45°51' W 084°37'4 7.1
2018-Jul-11 01:16N 45°52' W 084°43'511.2
2018-Jul-11 00:51N 45°51' W 084°37'611.5
2018-Jul-11 00:20N 45°47' W 084°43'613.6
2018-Jul-10 23:54N 45°51' W 084°37'458.5
2018-Jul-10 23:49N 45°48' W 084°42'410.4
2018-Jul-10 23:24N 45°51' W 084°37'682.4
2018-Jul-10 23:20N 45°47' W 084°43'611.3
2018-Jul-10 22:48N 45°51' W 084°37'5 9.9
2018-Jul-10 22:17N 45°47' W 084°42'224.5
2018-Jul-10 22:13N 45°49' W 084°41'3 8.9
2018-Jul-10 21:51N 45°51' W 084°37'415.5
2018-Jul-10 21:34N 45°48' W 084°42'0 1.3
2018-Jul-10 21:15N 45°48' W 084°41'4 9.3
2018-Jul-10 20:50N 45°51' W 084°37'2 4.1
2018-Jul-10 20:16N 45°49' W 084°39'328.8
2018-Jul-10 20:09N 45°47' W 084°43'537.6
2018-Jul-10 20:00N 45°51' W 084°37'65376.0
2018-Jul-10 20:00N 45°47' W 084°43'611.9
2018-Jul-10 19:30N 45°51' W 084°37'64294.1
2018-Jul-10 19:30N 45°47' W 084°43'611.9
2018-Jul-10 19:00N 45°51' W 084°37'64294.1
2018-Jul-10 19:00N 45°47' W 084°43'612.1
2018-Jul-10 18:31N 45°51' W 084°37'6741.5
2018-Jul-10 18:30N 45°47' W 084°43'0 0.5
2018-Jul-10 18:25N 45°47' W 084°43'0 0.0
2018-Jul-10 18:00N 45°47' W 084°43'017.6
2018-Jul-10 18:00N 45°47' W 084°43'610752.1
2018-Jul-10 18:00N 45°51' W 084°37'612.1
2018-Jul-10 17:30N 45°47' W 084°43'1374.2
2018-Jul-10 17:30N 45°47' W 084°43'52101.4
2018-Jul-10 17:30N 45°51' W 084°37'1 2.1
2018-Jul-10 17:01N 45°50' W 084°38'55939.0
2018-Jul-10 17:00N 45°47' W 084°43'610729.7
2018-Jul-10 17:00N 45°51' W 084°37'611.1
2018-Jul-10 16:31N 45°47' W 084°43'66631.6
2018-Jul-10 16:30N 45°51' W 084°37'6397.6
2018-Jul-10 16:30N 45°47' W 084°43'5 9.6
2018-Jul-10 16:01N 45°50' W 084°38'1784.7
2018-Jul-10 16:00N 45°51' W 084°37'62147.1
2018-Jul-10 16:00N 45°47' W 084°43'1 2.1
2018-Jul-10 15:31N 45°48' W 084°42'55924.5
2018-Jul-10 15:30N 45°51' W 084°37'67184.1
2018-Jul-10 15:30N 45°47' W 084°43'611.9
2018-Jul-10 15:00N 45°51' W 084°37'065.6
2018-Jul-10 15:00N 45°51' W 084°37'61042.4
2018-Jul-10 15:00N 45°47' W 084°43'0 0.0
2018-Jul-10 14:31N 45°47' W 084°43'32267.1
2018-Jul-10 14:30N 45°49' W 084°42'4220.2
2018-Jul-10 14:29N 45°51' W 084°37'4 7.4
2018-Jul-10 14:00N 45°49' W 084°41'2786.3
2018-Jul-10 14:00N 45°47' W 084°43'621470.6
2018-Jul-10 14:00N 45°51' W 084°37'612.1
2018-Jul-10 13:31N 45°47' W 084°43'610752.1
2018-Jul-10 13:31N 45°51' W 084°37'34033.2
2018-Jul-10 13:30N 45°49' W 084°41'3 5.6
2018-Jul-10 13:00N 45°47' W 084°43'61536.8
2018-Jul-10 13:00N 45°51' W 084°37'611.8
2018-Jul-10 12:30N 45°47' W 084°43'612.1
2018-Jul-10 12:00N 45°51' W 084°37'612.1
2018-Jul-10 11:30N 45°47' W 084°43'0 0.0
2018-Jul-10 02:27N 45°47' W 084°43'  

Dump ship's entire track history